Time;durP1;ratioP1;P1;durP2;ratioP2;P2;SDS_P1;SDS_P2;PMS_P1;PMS_P2;Temp;Humidity;BMP_temperature;BMP_pressure;BME280_temperature;BME280_humidity;BME280_pressure;Samples;Min_cycle;Max_cycle;Signal;HPM_P1;HPM_P2
2023/01/07 00:01:00;;;;;;;5.93;3.90;;;6.60;99.90;;;;;;5051946;28;20029;-71
2023/01/07 00:03:26;;;;;;;6.72;3.45;;;6.60;99.90;;;;;;5051862;28;20096;-71
2023/01/07 00:05:58;;;;;;;3.15;2.85;;;6.50;99.90;;;;;;5052206;28;20079;-71
2023/01/07 00:08:23;;;;;;;4.28;2.80;;;6.50;99.90;;;;;;5051625;28;20036;-71
2023/01/07 00:10:49;;;;;;;5.05;4.03;;;6.50;99.90;;;;;;5051550;28;20025;-71
2023/01/07 00:13:15;;;;;;;4.82;3.80;;;6.40;99.90;;;;;;5052153;28;20021;-71
2023/01/07 00:15:40;;;;;;;3.78;3.10;;;6.40;99.90;;;;;;5051841;28;20029;-71
2023/01/07 00:18:06;;;;;;;4.78;3.15;;;6.30;99.90;;;;;;5051833;28;20044;-71
2023/01/07 00:20:33;;;;;;;5.95;4.47;;;6.30;99.90;;;;;;5051574;28;20052;-71
2023/01/07 00:22:58;;;;;;;4.30;3.75;;;6.30;99.90;;;;;;5051518;28;20025;-71
2023/01/07 00:25:24;;;;;;;3.45;2.97;;;6.30;99.90;;;;;;5051335;28;20466;-71
2023/01/07 00:27:50;;;;;;;4.43;3.30;;;6.30;99.90;;;;;;5051451;28;20544;-72
2023/01/07 00:30:16;;;;;;;3.33;2.90;;;6.20;99.90;;;;;;5055604;28;20041;-71
2023/01/07 00:32:53;;;;;;;3.20;2.90;;;6.20;99.90;;;;;;5055312;28;20028;-72
2023/01/07 00:35:22;;;;;;;3.58;2.78;;;6.20;99.90;;;;;;5055439;28;20057;-71
2023/01/07 00:37:52;;;;;;;3.35;2.88;;;6.20;99.90;;;;;;5055372;28;20021;-72
2023/01/07 00:40:18;;;;;;;3.47;3.00;;;6.10;99.90;;;;;;5055113;28;20024;-72
2023/01/07 00:42:54;;;;;;;4.65;2.95;;;6.20;99.90;;;;;;5055677;28;20025;-72
2023/01/07 00:45:24;;;;;;;3.15;2.85;;;6.10;99.90;;;;;;5055189;28;20029;-72
2023/01/07 00:47:52;;;;;;;3.22;2.90;;;6.00;99.90;;;;;;5055135;28;20021;-72
2023/01/07 00:50:19;;;;;;;3.42;2.78;;;6.00;99.90;;;;;;5055275;28;20017;-72
2023/01/07 00:52:45;;;;;;;3.40;3.03;;;6.00;99.90;;;;;;5055007;28;20039;-72
2023/01/07 00:55:13;;;;;;;3.65;2.80;;;5.90;99.90;;;;;;5055089;28;20060;-72
2023/01/07 00:57:39;;;;;;;3.35;2.95;;;5.90;99.90;;;;;;5055596;28;20056;-72
2023/01/07 01:00:06;;;;;;;4.50;3.10;;;5.90;99.90;;;;;;5055056;28;20036;-72
2023/01/07 01:02:32;;;;;;;3.35;3.05;;;5.90;99.90;;;;;;5054972;28;20021;-72
2023/01/07 01:04:58;;;;;;;3.45;3.15;;;5.90;99.90;;;;;;5054996;28;20032;-72
2023/01/07 01:07:23;;;;;;;3.38;3.00;;;5.80;99.90;;;;;;5054436;28;20079;-71
2023/01/07 01:09:49;;;;;;;3.30;3.00;;;5.80;99.90;;;;;;5054764;28;20040;-72
2023/01/07 01:12:15;;;;;;;5.13;3.10;;;5.90;99.90;;;;;;5055064;28;20017;-72
2023/01/07 01:14:41;;;;;;;4.35;3.42;;;5.80;99.90;;;;;;5054868;28;20054;-72
2023/01/07 01:17:06;;;;;;;3.53;2.90;;;5.80;99.90;;;;;;5054629;28;20022;-72
2023/01/07 01:19:32;;;;;;;4.07;3.00;;;5.80;99.90;;;;;;5054635;28;20028;-72
2023/01/07 01:21:58;;;;;;;3.17;2.83;;;5.90;99.90;;;;;;5054553;28;20025;-71
2023/01/07 01:24:23;;;;;;;5.00;3.30;;;5.80;99.90;;;;;;5052886;28;20437;-71
2023/01/07 01:26:49;;;;;;;4.53;3.22;;;5.70;99.90;;;;;;5054615;28;20056;-72
2023/01/07 01:29:15;;;;;;;4.07;3.67;;;5.60;99.90;;;;;;5054147;28;20044;-71
2023/01/07 01:31:40;;;;;;;6.13;4.22;;;5.70;99.90;;;;;;5054467;28;20468;-72
2023/01/07 01:34:06;;;;;;;4.30;3.70;;;5.70;99.90;;;;;;5054336;28;20035;-72
2023/01/07 01:36:32;;;;;;;3.92;3.33;;;5.80;99.90;;;;;;5053872;28;20025;-71
2023/01/07 01:38:57;;;;;;;4.47;3.58;;;5.70;99.90;;;;;;5053306;28;20029;-72
2023/01/07 01:41:23;;;;;;;4.38;3.67;;;5.60;99.90;;;;;;5054534;28;20028;-72
2023/01/07 01:43:49;;;;;;;4.70;3.50;;;5.60;99.90;;;;;;5054021;28;20108;-71
2023/01/07 01:46:36;;;;;;;4.68;3.70;;;5.50;99.90;;;;;;5054207;28;20031;-72
2023/01/07 01:49:21;;;;;;;4.55;3.67;;;5.50;99.90;;;;;;5054013;28;20563;-72
2023/01/07 01:51:56;;;;;;;3.42;3.13;;;5.50;99.90;;;;;;5053545;28;20029;-71
2023/01/07 01:54:23;;;;;;;4.78;3.45;;;5.50;99.90;;;;;;5053937;28;20033;-71
2023/01/07 01:56:52;;;;;;;4.10;3.70;;;5.50;99.90;;;;;;5053056;28;20430;-71
2023/01/07 01:59:22;;;;;;;4.53;3.65;;;5.50;99.90;;;;;;5054065;28;20035;-71
2023/01/07 02:01:48;;;;;;;3.88;3.55;;;5.40;99.90;;;;;;5053840;28;20094;-72
2023/01/07 02:04:18;;;;;;;4.32;3.50;;;5.30;99.90;;;;;;5053807;28;20510;-72
2023/01/07 02:06:58;;;;;;;4.60;4.13;;;5.40;99.90;;;;;;5053393;28;20425;-71
2023/01/07 02:09:23;;;;;;;4.50;3.83;;;5.30;99.90;;;;;;5053768;28;20045;-71
2023/01/07 02:11:55;;;;;;;4.78;4.28;;;5.30;99.90;;;;;;5053566;28;20108;-71
2023/01/07 02:14:30;;;;;;;4.78;3.70;;;5.30;99.90;;;;;;5052732;28;20028;-71
2023/01/07 02:17:06;;;;;;;5.00;4.28;;;5.30;99.90;;;;;;5053159;28;20116;-71
2023/01/07 02:20:20;;;;;;;7.70;6.00;;;5.40;99.90;;;;;;5053597;28;20068;-72
2023/01/07 02:22:59;;;;;;;6.18;4.88;;;5.40;99.90;;;;;;5040254;28;20029;-72
2023/01/07 02:25:43;;;;;;;7.47;4.88;;;5.30;99.90;;;;;;5053356;28;20056;-71
2023/01/07 02:28:34;;;;;;;6.28;4.43;;;5.30;99.90;;;;;;5053194;28;20490;-71
2023/01/07 02:31:14;;;;;;;7.05;6.10;;;5.40;99.90;;;;;;5053084;28;20040;-71
2023/01/07 02:33:43;;;;;;;5.13;4.13;;;5.20;99.90;;;;;;5053140;28;20047;-71
2023/01/07 02:36:14;;;;;;;6.35;5.25;;;5.40;99.90;;;;;;5052959;28;20033;-72
2023/01/07 02:38:48;;;;;;;6.13;5.53;;;5.30;99.90;;;;;;5053071;28;20025;-71
2023/01/07 02:41:57;;;;;;;9.45;6.80;;;5.20;99.90;;;;;;5053023;28;20442;-72
2023/01/07 02:44:23;;;;;;;5.18;4.68;;;5.20;99.90;;;;;;5052754;28;20040;-71
2023/01/07 02:46:55;;;;;;;6.05;4.32;;;5.30;99.90;;;;;;5053115;28;20406;-71
2023/01/07 02:49:22;;;;;;;4.28;3.88;;;5.30;99.90;;;;;;5052483;28;20049;-72
2023/01/07 02:51:47;;;;;;;5.78;4.13;;;5.30;99.90;;;;;;5053082;28;20370;-72
2023/01/07 02:54:21;;;;;;;4.32;3.90;;;5.20;99.90;;;;;;5052903;28;20036;-72
2023/01/07 02:57:13;;;;;;;4.85;3.97;;;5.30;99.90;;;;;;5052901;28;20071;-72
2023/01/07 03:00:02;;;;;;;5.03;4.10;;;5.20;99.90;;;;;;5052863;28;20009;-72
2023/01/07 03:02:34;;;;;;;5.18;4.22;;;5.20;99.90;;;;;;5052653;28;20061;-72
2023/01/07 03:05:22;;;;;;;4.60;4.20;;;5.20;99.90;;;;;;5052358;28;20025;-72
2023/01/07 03:07:54;;;;;;;5.00;4.50;;;5.20;99.90;;;;;;5045952;28;20528;-72
2023/01/07 03:10:38;;;;;;;5.57;4.78;;;5.00;99.90;;;;;;5052794;28;20440;-72
2023/01/07 03:13:09;;;;;;;6.40;4.65;;;4.90;99.90;;;;;;5052564;28;20038;-72
2023/01/07 03:15:37;;;;;;;5.90;5.30;;;4.90;99.90;;;;;;5052888;28;20025;-72
2023/01/07 03:18:21;;;;;;;5.45;4.80;;;4.90;99.90;;;;;;5052022;28;20025;-71
2023/01/07 03:20:52;;;;;;;6.55;5.38;;;4.90;99.90;;;;;;5052404;28;20021;-72
2023/01/07 03:23:21;;;;;;;6.15;4.88;;;4.80;99.90;;;;;;5052411;28;20378;-72
2023/01/07 03:25:50;;;;;;;5.40;4.90;;;4.80;99.90;;;;;;5051549;28;20096;-72
2023/01/07 03:28:20;;;;;;;6.85;5.05;;;4.70;99.90;;;;;;5052022;28;20051;-72
2023/01/07 03:30:48;;;;;;;6.32;5.72;;;4.70;99.90;;;;;;5052305;28;20108;-72
2023/01/07 03:33:26;;;;;;;7.00;6.03;;;4.60;99.90;;;;;;5051940;28;20112;-72
2023/01/07 03:35:55;;;;;;;6.82;5.53;;;4.40;99.90;;;;;;5052581;28;20028;-72
2023/01/07 03:38:22;;;;;;;5.80;4.63;;;4.40;99.90;;;;;;5052328;28;20100;-72
2023/01/07 03:40:49;;;;;;;8.40;5.55;;;4.50;99.90;;;;;;5051007;28;20029;-72
2023/01/07 03:43:19;;;;;;;6.57;5.10;;;4.40;99.90;;;;;;5051934;28;20036;-71
2023/01/07 03:45:46;;;;;;;5.55;5.05;;;4.30;99.90;;;;;;5051994;28;20059;-72
2023/01/07 03:48:15;;;;;;;5.60;4.88;;;4.40;99.90;;;;;;5051651;28;20025;-72
2023/01/07 03:50:40;;;;;;;6.68;4.93;;;4.40;99.90;;;;;;5052079;28;20056;-72
2023/01/07 03:53:06;;;;;;;6.10;5.53;;;4.30;99.90;;;;;;5052048;28;20059;-70
2023/01/07 03:55:32;;;;;;;5.75;5.20;;;4.30;99.90;;;;;;5052089;28;20025;-71
2023/01/07 03:57:58;;;;;;;8.20;6.20;;;4.20;99.90;;;;;;5049569;28;20037;-72
2023/01/07 04:00:24;;;;;;;6.93;6.22;;;4.20;99.90;;;;;;5051302;28;20031;-72
2023/01/07 04:02:50;;;;;;;7.43;6.70;;;4.30;99.90;;;;;;5053329;28;20029;-72
2023/01/07 04:05:16;;;;;;;5.45;4.95;;;4.20;99.90;;;;;;5055999;28;20063;-72
2023/01/07 04:07:41;;;;;;;5.95;5.32;;;4.20;99.90;;;;;;5055894;28;20060;-72
2023/01/07 04:10:08;;;;;;;5.90;5.30;;;4.20;99.90;;;;;;5055925;28;20060;-72
2023/01/07 04:12:34;;;;;;;5.60;5.07;;;4.20;99.90;;;;;;5055645;28;20083;-71
2023/01/07 04:14:59;;;;;;;6.10;5.10;;;4.20;99.90;;;;;;5056111;28;20021;-72
2023/01/07 04:17:25;;;;;;;8.43;5.38;;;4.30;99.90;;;;;;5055378;28;20047;-72
2023/01/07 04:19:51;;;;;;;5.68;5.18;;;4.40;99.90;;;;;;5055621;28;20401;-71
2023/01/07 04:22:16;;;;;;;7.13;4.75;;;4.50;99.90;;;;;;5055891;28;20025;-71
2023/01/07 04:24:42;;;;;;;5.28;4.78;;;4.40;99.90;;;;;;5055668;28;20028;-72
2023/01/07 04:27:09;;;;;;;5.55;4.72;;;4.40;99.90;;;;;;5055571;28;20033;-71
2023/01/07 04:29:35;;;;;;;5.10;4.60;;;4.40;99.90;;;;;;5055296;28;20521;-71
2023/01/07 04:32:01;;;;;;;4.85;4.43;;;4.40;99.90;;;;;;5055241;28;20154;-71
2023/01/07 04:34:27;;;;;;;5.38;4.55;;;4.40;99.90;;;;;;5055448;28;20489;-72
2023/01/07 04:36:53;;;;;;;8.35;5.00;;;4.40;99.90;;;;;;5055434;28;20064;-72
2023/01/07 04:39:18;;;;;;;4.78;4.38;;;4.40;99.90;;;;;;5055345;28;20024;-72
2023/01/07 04:41:44;;;;;;;5.30;4.80;;;4.40;99.90;;;;;;5055280;28;20024;-71
2023/01/07 04:44:10;;;;;;;6.15;5.00;;;4.40;99.90;;;;;;5055658;28;20446;-71
2023/01/07 04:46:36;;;;;;;5.47;4.22;;;4.30;99.90;;;;;;5054982;28;20025;-71
2023/01/07 04:49:01;;;;;;;5.80;4.93;;;4.40;99.90;;;;;;5055190;28;20029;-71
2023/01/07 04:51:27;;;;;;;6.35;5.00;;;4.20;99.90;;;;;;5055467;28;20031;-72
2023/01/07 04:53:53;;;;;;;5.65;5.15;;;4.20;99.90;;;;;;5055138;28;20025;-71
2023/01/07 04:56:18;;;;;;;7.50;5.25;;;4.10;99.90;;;;;;5055089;28;20029;-72
2023/01/07 04:58:44;;;;;;;6.90;5.10;;;4.10;99.90;;;;;;5054953;28;20029;-71
2023/01/07 05:01:10;;;;;;;6.10;5.50;;;4.10;99.90;;;;;;5054628;28;20033;-71
2023/01/07 05:03:36;;;;;;;6.18;5.57;;;4.00;99.90;;;;;;5054953;28;20025;-72
2023/01/07 05:06:02;;;;;;;5.50;4.93;;;4.00;99.90;;;;;;5055324;28;20059;-71
2023/01/07 05:08:28;;;;;;;6.28;5.10;;;4.10;99.90;;;;;;5054682;28;20093;-71
2023/01/07 05:10:54;;;;;;;5.85;5.28;;;4.10;99.90;;;;;;5054822;28;20029;-71
2023/01/07 05:13:21;;;;;;;8.40;5.88;;;4.10;99.90;;;;;;5054349;28;20031;-71
2023/01/07 05:15:47;;;;;;;5.75;5.15;;;4.20;99.90;;;;;;5054751;28;20497;-72
2023/01/07 05:18:14;;;;;;;5.90;5.38;;;4.10;99.90;;;;;;5054587;28;20111;-71
2023/01/07 05:20:40;;;;;;;6.78;6.10;;;4.20;99.90;;;;;;5054249;28;20031;-72
2023/01/07 05:23:06;;;;;;;6.35;5.60;;;4.20;99.90;;;;;;5054470;28;20482;-71
2023/01/07 05:25:32;;;;;;;6.57;5.80;;;4.20;99.90;;;;;;5054435;28;20135;-72
2023/01/07 05:27:58;;;;;;;7.57;5.38;;;4.10;99.90;;;;;;5054190;28;20049;-72
2023/01/07 05:30:24;;;;;;;6.70;5.97;;;4.10;99.90;;;;;;5054033;28;20032;-72
2023/01/07 05:32:49;;;;;;;7.30;5.43;;;4.00;99.90;;;;;;5054359;28;20040;-72
2023/01/07 05:35:15;;;;;;;8.18;5.57;;;4.10;99.90;;;;;;5054536;28;20104;-72
2023/01/07 05:37:41;;;;;;;7.18;5.82;;;4.10;99.90;;;;;;5053951;28;20055;-72
2023/01/07 05:40:07;;;;;;;6.07;5.38;;;4.20;99.90;;;;;;5054478;28;20036;-71
2023/01/07 05:42:33;;;;;;;6.10;5.50;;;4.20;99.90;;;;;;5054117;28;20032;-72
2023/01/07 05:44:58;;;;;;;6.57;5.90;;;4.20;99.90;;;;;;5053712;28;20021;-72
2023/01/07 05:47:24;;;;;;;5.90;5.40;;;4.20;99.90;;;;;;5054104;28;20104;-71
2023/01/07 05:49:50;;;;;;;7.05;5.35;;;4.30;99.90;;;;;;5052894;28;20037;-72
2023/01/07 05:52:16;;;;;;;6.28;5.35;;;4.10;99.90;;;;;;5053935;28;20025;-72
2023/01/07 05:54:41;;;;;;;5.40;4.90;;;4.00;99.90;;;;;;5054388;28;20474;-72
2023/01/07 05:57:07;;;;;;;6.68;4.75;;;4.10;99.90;;;;;;5053841;28;20032;-71
2023/01/07 05:59:33;;;;;;;6.75;5.05;;;4.10;99.90;;;;;;5053610;28;20036;-72
2023/01/07 06:02:00;;;;;;;5.70;5.10;;;4.00;99.90;;;;;;5053789;28;20021;-72
2023/01/07 06:04:26;;;;;;;6.82;4.95;;;3.90;99.90;;;;;;5054264;28;20112;-72
2023/01/07 06:06:52;;;;;;;5.82;5.20;;;3.90;99.90;;;;;;5053870;28;20487;-72
2023/01/07 06:09:18;;;;;;;6.53;5.20;;;3.70;99.90;;;;;;5053604;28;20068;-72
2023/01/07 06:11:43;;;;;;;6.13;5.47;;;3.90;99.90;;;;;;5053558;28;20017;-73
2023/01/07 06:14:09;;;;;;;7.20;5.53;;;4.00;99.90;;;;;;5053775;28;20465;-72
2023/01/07 06:16:35;;;;;;;8.98;5.75;;;3.80;99.90;;;;;;5053519;28;20021;-72
2023/01/07 06:19:01;;;;;;;5.75;5.20;;;3.70;99.90;;;;;;5053608;28;20029;-72
2023/01/07 06:21:27;;;;;;;7.32;5.18;;;3.80;99.90;;;;;;5053346;28;20021;-72
2023/01/07 06:23:52;;;;;;;6.07;5.47;;;3.90;99.90;;;;;;5053341;28;20090;-72
2023/01/07 06:26:18;;;;;;;6.40;5.25;;;3.80;99.90;;;;;;5052597;28;20052;-72
2023/01/07 06:28:44;;;;;;;7.30;5.60;;;3.70;99.90;;;;;;5052847;28;20053;-72
2023/01/07 06:31:10;;;;;;;6.30;5.70;;;3.70;99.90;;;;;;5053139;28;20025;-71
2023/01/07 06:33:39;;;;;;;7.68;6.25;;;3.60;99.90;;;;;;5053561;28;20379;-71
2023/01/07 06:36:06;;;;;;;6.68;5.90;;;3.60;99.90;;;;;;5053161;28;20025;-71
2023/01/07 06:38:32;;;;;;;6.63;5.88;;;3.70;99.90;;;;;;5053105;28;20021;-72
2023/01/07 06:40:58;;;;;;;9.85;7.00;;;3.60;99.90;;;;;;5052934;28;20504;-72
2023/01/07 06:43:24;;;;;;;7.60;6.18;;;3.70;99.90;;;;;;5053063;28;20493;-71
2023/01/07 06:45:50;;;;;;;9.65;7.55;;;3.70;99.90;;;;;;5053052;28;20028;-72
2023/01/07 06:48:16;;;;;;;8.88;6.97;;;3.70;99.90;;;;;;5053324;28;20180;-71
2023/01/07 06:50:43;;;;;;;8.52;6.82;;;3.50;99.90;;;;;;5052834;28;20485;-71
2023/01/07 06:53:09;;;;;;;8.57;7.32;;;3.40;99.90;;;;;;5052891;28;20099;-72
2023/01/07 06:55:34;;;;;;;10.50;7.70;;;3.30;99.90;;;;;;5052242;28;20103;-72
2023/01/07 06:58:00;;;;;;;9.85;7.78;;;3.40;99.90;;;;;;5052642;28;20032;-70
2023/01/07 07:00:26;;;;;;;9.38;7.32;;;3.40;99.90;;;;;;5052596;28;20415;-71
2023/01/07 07:02:52;;;;;;;10.13;7.30;;;3.50;99.90;;;;;;5051648;28;20025;-71
2023/01/07 07:05:18;;;;;;;10.00;7.75;;;3.70;99.90;;;;;;5052438;28;20116;-71
2023/01/07 07:07:43;;;;;;;8.68;6.97;;;3.80;99.90;;;;;;5052454;28;20103;-71
2023/01/07 07:10:09;;;;;;;9.75;7.57;;;3.90;99.90;;;;;;5052291;28;20072;-71
2023/01/07 07:12:36;;;;;;;9.50;7.43;;;3.90;99.90;;;;;;5052328;28;20025;-71
2023/01/07 07:15:03;;;;;;;8.40;6.50;;;4.00;99.90;;;;;;5052410;28;20029;-71
2023/01/07 07:17:29;;;;;;;10.85;6.53;;;4.00;99.90;;;;;;5052261;28;20545;-71
2023/01/07 07:19:55;;;;;;;10.93;7.13;;;3.90;99.90;;;;;;5052652;28;20025;-71
2023/01/07 07:22:20;;;;;;;9.45;7.13;;;4.00;99.90;;;;;;5052256;28;20469;-71
2023/01/07 07:24:46;;;;;;;9.23;6.63;;;4.00;99.90;;;;;;5051879;28;20443;-72
2023/01/07 07:27:12;;;;;;;10.27;6.60;;;4.00;99.90;;;;;;5052265;28;20111;-71
2023/01/07 07:29:37;;;;;;;9.00;5.80;;;4.20;99.90;;;;;;5051860;28;20049;-71
2023/01/07 07:32:03;;;;;;;9.63;6.70;;;4.00;99.90;;;;;;5051962;28;20025;-70
2023/01/07 07:34:29;;;;;;;8.32;6.47;;;4.20;99.90;;;;;;5051976;28;20063;-72
2023/01/07 07:36:55;;;;;;;10.02;6.20;;;4.30;99.90;;;;;;5052375;28;20074;-71
2023/01/07 07:39:21;;;;;;;8.98;5.63;;;4.30;99.90;;;;;;5051036;28;20048;-71
2023/01/07 07:41:46;;;;;;;9.40;6.68;;;4.20;99.90;;;;;;5051380;28;20067;-70
2023/01/07 07:44:12;;;;;;;7.88;5.53;;;4.30;99.90;;;;;;5051402;28;20036;-73
2023/01/07 07:46:38;;;;;;;9.63;6.00;;;4.50;99.90;;;;;;5051776;28;20082;-71
2023/01/07 07:49:04;;;;;;;7.32;5.75;;;4.50;99.90;;;;;;5051713;28;20037;-72
2023/01/07 07:51:30;;;;;;;8.27;5.45;;;4.50;99.90;;;;;;5051744;28;20049;-72
2023/01/07 07:53:56;;;;;;;9.13;5.72;;;4.60;99.90;;;;;;5051407;28;20037;-72
2023/01/07 07:56:22;;;;;;;8.75;5.38;;;4.60;99.90;;;;;;5051774;28;20021;-72
2023/01/07 07:58:47;;;;;;;7.63;6.00;;;4.60;99.90;;;;;;5052248;28;20029;-72
2023/01/07 08:01:13;;;;;;;7.22;5.38;;;4.80;99.90;;;;;;5051643;28;20389;-72
2023/01/07 08:03:39;;;;;;;8.13;5.32;;;5.00;99.90;;;;;;5051696;28;20393;-72
2023/01/07 08:06:05;;;;;;;6.82;5.20;;;5.00;99.90;;;;;;5052222;28;20028;-72
2023/01/07 08:08:31;;;;;;;6.95;5.07;;;5.10;99.90;;;;;;5050989;28;20120;-70
2023/01/07 08:10:56;;;;;;;7.05;4.93;;;5.20;99.90;;;;;;5051728;28;20108;-71
2023/01/07 08:13:22;;;;;;;7.38;4.82;;;5.10;99.90;;;;;;5051606;28;20032;-71
2023/01/07 08:15:48;;;;;;;7.00;4.50;;;5.30;99.90;;;;;;5051662;28;20060;-71
2023/01/07 08:18:13;;;;;;;6.68;4.43;;;5.20;99.90;;;;;;5051761;28;20033;-71
2023/01/07 08:20:39;;;;;;;5.68;4.57;;;5.40;99.90;;;;;;5051858;28;20056;-71
2023/01/07 08:23:06;;;;;;;5.25;4.18;;;5.40;99.90;;;;;;5051090;28;20048;-71
2023/01/07 08:25:33;;;;;;;5.00;4.50;;;5.40;99.90;;;;;;5051665;28;20037;-71
2023/01/07 08:28:00;;;;;;;5.85;4.20;;;5.60;99.90;;;;;;5051433;28;20088;-71
2023/01/07 08:30:26;;;;;;;6.28;4.15;;;5.90;99.90;;;;;;5051840;28;20043;-71
2023/01/07 08:32:53;;;;;;;6.55;4.07;;;8.30;99.90;;;;;;5051346;28;20036;-70
2023/01/07 08:35:19;;;;;;;5.93;3.88;;;9.80;99.90;;;;;;5051553;28;20040;-70
2023/01/07 08:37:45;;;;;;;5.93;3.47;;;10.60;99.90;;;;;;5051462;28;20028;-70
2023/01/07 08:40:11;;;;;;;4.72;3.45;;;10.80;99.90;;;;;;5050318;28;20123;-70
2023/01/07 08:42:38;;;;;;;4.93;3.55;;;10.90;99.90;;;;;;5051475;28;20033;-70
2023/01/07 08:45:05;;;;;;;5.18;3.33;;;11.70;99.90;;;;;;5051456;28;20029;-70
2023/01/07 08:47:31;;;;;;;4.75;3.60;;;11.20;99.90;;;;;;5051751;28;20029;-70
2023/01/07 08:49:57;;;;;;;3.95;3.55;;;10.80;99.90;;;;;;5054800;28;20033;-71
2023/01/07 08:52:24;;;;;;;4.20;3.70;;;9.10;99.90;;;;;;5054745;28;20048;-71
2023/01/07 08:54:50;;;;;;;4.25;3.50;;;9.70;99.90;;;;;;5055486;28;20029;-70
2023/01/07 08:57:17;;;;;;;4.20;3.50;;;8.90;99.90;;;;;;5055069;28;20393;-70
2023/01/07 08:59:43;;;;;;;4.13;3.30;;;9.90;99.90;;;;;;5054985;28;20466;-70
2023/01/07 09:02:17;;;;;;;4.03;3.47;;;8.90;99.90;;;;;;5055166;28;20040;-70
2023/01/07 09:04:43;;;;;;;3.65;3.25;;;8.30;99.90;;;;;;5055123;28;20428;-70
2023/01/07 09:07:09;;;;;;;6.32;3.60;;;8.00;99.90;;;;;;5054914;28;20486;-70
2023/01/07 09:09:36;;;;;;;4.93;3.40;;;7.80;99.90;;;;;;5054991;28;20025;-70
2023/01/07 09:12:03;;;;;;;4.90;3.70;;;7.80;99.90;;;;;;5054786;28;20032;-69
2023/01/07 09:14:29;;;;;;;5.00;3.70;;;7.90;99.90;;;;;;5055017;28;20497;-70
2023/01/07 09:16:54;;;;;;;5.57;3.60;;;7.90;99.90;;;;;;5055071;28;20025;-70
2023/01/07 09:19:20;;;;;;;5.03;3.30;;;7.90;99.90;;;;;;5054794;28;20383;-70
2023/01/07 09:21:46;;;;;;;4.63;3.70;;;7.80;99.90;;;;;;5053006;28;20104;-70
2023/01/07 09:24:12;;;;;;;4.55;3.63;;;7.70;99.90;;;;;;5054672;28;20179;-70
2023/01/07 09:26:37;;;;;;;4.88;3.97;;;7.70;99.90;;;;;;5054581;28;20017;-70
2023/01/07 09:29:03;;;;;;;5.15;4.00;;;7.70;99.90;;;;;;5054216;28;20502;-70
2023/01/07 09:31:29;;;;;;;4.93;3.90;;;7.70;99.90;;;;;;5054340;28;20029;-70
2023/01/07 09:33:55;;;;;;;4.75;3.65;;;7.70;99.90;;;;;;5054204;28;20033;-70
2023/01/07 09:36:20;;;;;;;4.20;3.80;;;7.80;99.90;;;;;;5054482;28;20028;-70
2023/01/07 09:38:46;;;;;;;4.30;3.90;;;7.80;99.90;;;;;;5054480;28;20389;-70
2023/01/07 09:41:46;;;;;;;4.97;3.97;;;7.70;99.90;;;;;;5054569;28;20116;-68
2023/01/07 09:44:29;;;;;;;6.18;3.97;;;7.80;99.90;;;;;;4996427;28;20494;-70
2023/01/07 09:46:56;;;;;;;5.00;4.32;;;7.80;99.90;;;;;;5012392;28;20026;-70
2023/01/07 09:49:26;;;;;;;6.65;4.45;;;7.80;99.90;;;;;;5012109;28;20050;-70
2023/01/07 09:52:21;;;;;;;4.60;4.10;;;7.90;99.90;;;;;;5012151;28;20440;-70
2023/01/07 09:54:51;;;;;;;4.65;3.97;;;7.90;99.90;;;;;;4993972;28;20037;-71
2023/01/07 09:57:17;;;;;;;4.30;3.78;;;8.00;99.90;;;;;;5012382;28;20030;-70
2023/01/07 09:59:43;;;;;;;4.75;3.80;;;8.10;99.90;;;;;;5011325;28;20487;-70
2023/01/07 10:02:43;;;;;;;5.82;3.60;;;8.10;99.90;;;;;;5011673;28;20041;-70
2023/01/07 10:05:34;;;;;;;3.50;3.20;;;8.20;99.90;;;;;;5011765;28;20057;-70
2023/01/07 10:08:16;;;;;;;4.88;3.60;;;8.20;99.90;;;;;;5011771;28;20042;-70
2023/01/07 10:11:00;;;;;;;4.07;3.40;;;8.20;99.90;;;;;;5011653;28;20037;-70
2023/01/07 10:13:43;;;;;;;;;;;8.20;99.90;;;;;;5012576;28;20057;-69
2023/01/07 10:16:23;;;;;;;5.28;3.40;;;8.20;99.90;;;;;;5011833;28;19905;-70
2023/01/07 10:19:03;;;;;;;4.97;3.38;;;8.30;99.90;;;;;;4995025;28;20109;-70
2023/01/07 10:21:51;;;;;;;3.92;3.20;;;8.30;99.90;;;;;;5039683;28;20037;-70
2023/01/07 10:24:27;;;;;;;5.93;3.90;;;8.30;99.90;;;;;;5053597;28;20028;-69
2023/01/07 10:26:56;;;;;;;5.35;3.85;;;8.30;99.90;;;;;;5054001;28;20024;-70
2023/01/07 10:29:30;;;;;;;5.13;3.50;;;8.40;99.90;;;;;;5053094;28;20083;-70
2023/01/07 10:32:02;;;;;;;4.80;3.50;;;8.40;99.90;;;;;;5053084;28;20032;-70
2023/01/07 10:34:37;;;;;;;4.22;3.53;;;8.40;99.90;;;;;;5053335;28;20100;-70
2023/01/07 10:37:28;;;;;;;5.05;3.63;;;8.40;99.90;;;;;;5053444;28;20143;-70
2023/01/07 10:40:11;;;;;;;6.63;3.90;;;8.50;99.90;;;;;;5053002;28;20386;-70
2023/01/07 10:42:52;;;;;;;3.85;3.55;;;8.50;99.90;;;;;;5053548;28;20550;-71
2023/01/07 10:45:49;;;;;;;4.63;4.18;;;8.50;99.90;;;;;;5052993;28;20025;-71
2023/01/07 10:48:27;;;;;;;5.00;3.88;;;8.50;99.90;;;;;;5043495;28;20065;-71
2023/01/07 10:51:22;;;;;;;4.45;3.88;;;8.50;99.90;;;;;;5053044;28;20083;-71
2023/01/07 10:53:53;;;;;;;4.30;3.90;;;8.40;99.90;;;;;;5051654;28;20494;-71
2023/01/07 10:56:43;;;;;;;5.32;3.60;;;8.40;99.90;;;;;;5052938;28;20039;-71
2023/01/07 10:59:21;;;;;;;4.32;3.60;;;8.20;99.90;;;;;;5052802;28;20021;-71
2023/01/07 11:01:57;;;;;;;4.85;4.32;;;8.20;99.90;;;;;;5052649;28;20517;-71
2023/01/07 11:04:24;;;;;;;5.10;4.53;;;8.10;99.90;;;;;;5052669;28;20392;-71
2023/01/07 11:07:03;;;;;;;5.40;4.90;;;8.10;99.90;;;;;;5052911;28;20099;-71
2023/01/07 11:09:36;;;;;;;5.80;5.20;;;8.20;99.90;;;;;;5052461;28;20028;-71
2023/01/07 11:12:26;;;;;;;5.95;5.28;;;8.20;99.90;;;;;;5052234;28;20044;-71
2023/01/07 11:14:55;;;;;;;5.65;5.15;;;8.20;99.90;;;;;;5052625;28;20029;-70
2023/01/07 11:17:42;;;;;;;5.80;5.20;;;8.30;99.90;;;;;;5052115;28;20100;-71
2023/01/07 11:20:08;;;;;;;5.18;4.55;;;8.40;99.90;;;;;;5052616;28;20025;-70
2023/01/07 11:22:37;;;;;;;7.00;5.03;;;8.40;99.90;;;;;;5052543;28;20550;-71
2023/01/07 11:25:27;;;;;;;4.82;4.30;;;8.50;99.90;;;;;;5052741;28;20039;-71
2023/01/07 11:27:57;;;;;;;5.03;4.38;;;8.50;99.90;;;;;;5052388;28;20417;-71
2023/01/07 11:30:29;;;;;;;6.57;4.32;;;8.40;99.90;;;;;;5052089;28;20061;-71
2023/01/07 11:33:03;;;;;;;4.63;4.22;;;8.40;99.90;;;;;;5051907;28;20025;-70
2023/01/07 11:35:30;;;;;;;6.20;5.30;;;8.40;99.90;;;;;;5052199;28;20111;-71
2023/01/07 11:37:56;;;;;;;6.45;5.20;;;8.40;99.90;;;;;;5052391;28;20045;-70
2023/01/07 11:40:29;;;;;;;6.40;4.68;;;8.40;99.90;;;;;;5052210;28;20031;-70
2023/01/07 11:43:03;;;;;;;6.90;5.07;;;8.40;99.90;;;;;;5052402;28;20091;-70
2023/01/07 11:45:48;;;;;;;5.63;4.57;;;8.50;99.90;;;;;;5051683;28;20367;-70
2023/01/07 11:48:16;;;;;;;5.28;4.05;;;8.40;99.90;;;;;;5052064;28;20120;-70
2023/01/07 11:50:54;;;;;;;5.45;4.53;;;8.60;99.90;;;;;;5052576;28;20025;-70
2023/01/07 11:53:36;;;;;;;7.25;4.88;;;8.70;99.90;;;;;;5052114;28;20524;-70
2023/01/07 11:56:06;;;;;;;5.80;5.20;;;8.80;99.90;;;;;;5051980;28;20028;-70
2023/01/07 11:58:44;;;;;;;6.78;4.38;;;8.90;99.90;;;;;;5034626;28;20397;-71
2023/01/07 12:01:16;;;;;;;6.05;4.18;;;9.00;99.90;;;;;;5051890;28;20504;-70
2023/01/07 12:04:00;;;;;;;6.00;4.60;;;9.00;99.90;;;;;;5052017;28;20440;-70
2023/01/07 12:06:36;;;;;;;6.80;4.45;;;9.00;99.90;;;;;;5051943;28;20470;-70
2023/01/07 12:09:46;;;;;;;6.10;4.75;;;8.90;99.90;;;;;;5051765;28;20037;-70
2023/01/07 12:12:38;;;;;;;7.28;4.80;;;8.80;99.90;;;;;;5009163;28;20197;-70
2023/01/07 12:15:23;;;;;;;5.72;4.50;;;8.90;99.90;;;;;;5009436;28;20371;-70
2023/01/07 12:18:16;;;;;;;5.10;4.60;;;9.00;99.90;;;;;;5010207;28;20038;-70
2023/01/07 12:21:15;;;;;;;7.65;5.13;;;9.00;99.90;;;;;;5009868;28;20034;-70
2023/01/07 12:23:48;;;;;;;6.40;5.80;;;9.10;99.90;;;;;;5010726;28;20034;-71
2023/01/07 12:26:20;;;;;;;6.80;5.43;;;9.10;99.90;;;;;;5013641;28;20029;-69
2023/01/07 12:29:07;;;;;;;6.10;5.40;;;9.20;99.90;;;;;;5013549;28;20300;-71
2023/01/07 12:32:04;;;;;;;5.75;5.15;;;9.40;99.90;;;;;;5013741;28;20092;-69
2023/01/07 12:34:45;;;;;;;8.20;5.20;;;9.60;99.90;;;;;;5013738;28;20080;-69
2023/01/07 12:37:38;;;;;;;6.15;4.90;;;9.70;99.90;;;;;;5013661;28;20042;-68
2023/01/07 12:40:27;;;;;;;6.43;4.20;;;9.80;99.90;;;;;;5012164;28;20367;-70
2023/01/07 12:43:02;;;;;;;6.32;4.95;;;10.00;99.90;;;;;;5023980;28;20045;-69
2023/01/07 12:45:50;;;;;;;6.72;5.03;;;10.10;99.90;;;;;;5054629;28;20507;-69
2023/01/07 12:48:37;;;;;;;7.55;4.90;;;10.10;99.90;;;;;;5055357;28;20031;-69
2023/01/07 12:51:11;;;;;;;5.20;4.25;;;10.30;99.90;;;;;;5055684;28;20390;-69
2023/01/07 12:53:45;;;;;;;6.85;5.25;;;10.40;99.90;;;;;;5054895;28;20028;-70
2023/01/07 12:56:20;;;;;;;6.47;5.80;;;10.50;99.90;;;;;;5054739;28;20502;-69
2023/01/07 12:58:59;;;;;;;5.95;5.28;;;10.60;99.90;;;;;;5054649;28;20035;-69
2023/01/07 13:01:28;;;;;;;5.20;4.50;;;10.80;99.90;;;;;;5054994;28;20040;-68
2023/01/07 13:04:30;;;;;;;5.15;3.80;;;10.90;99.90;;;;;;5055375;28;20033;-64
2023/01/07 13:07:26;;;;;;;5.28;3.83;;;11.00;99.90;;;;;;5045894;28;20044;-64
2023/01/07 13:10:27;;;;;;;7.07;4.53;;;11.00;99.90;;;;;;5055364;28;20394;-65
2023/01/07 13:13:01;;;;;;;5.95;4.72;;;11.10;99.90;;;;;;5012597;28;20027;-64
2023/01/07 13:15:28;;;;;;;6.95;5.10;;;11.20;99.90;;;;;;5012993;28;20099;-65